Time;durP1;ratioP1;P1;durP2;ratioP2;P2;SDS_P1;SDS_P2;PMS_P1;PMS_P2;Temp;Humidity;BMP_temperature;BMP_pressure;BME280_temperature;BME280_humidity;BME280_pressure;Samples;Min_cycle;Max_cycle;Signal;HPM_P1;HPM_P2
2021/09/11 00:01:47;;;;;;;0.40;0.20;;;19.60;99.90;;;;;;5055537;28;20173;-72
2021/09/11 00:04:13;;;;;;;0.87;0.87;;;19.50;99.90;;;;;;5055328;28;20544;-72
2021/09/11 00:06:38;;;;;;;0.40;0.20;;;19.40;99.90;;;;;;5055215;28;20272;-71
2021/09/11 00:09:04;;;;;;;0.50;0.30;;;19.40;99.90;;;;;;5055098;28;20177;-71
2021/09/11 00:11:30;;;;;;;0.40;0.20;;;19.40;99.90;;;;;;5054095;28;20515;-71
2021/09/11 00:13:55;;;;;;;0.40;0.20;;;19.40;99.90;;;;;;5055148;28;20185;-71
2021/09/11 00:16:22;;;;;;;0.40;0.20;;;19.30;99.90;;;;;;5055089;28;20268;-71
2021/09/11 00:18:47;;;;;;;0.40;0.20;;;19.50;99.90;;;;;;5054988;28;20219;-71
2021/09/11 00:21:13;;;;;;;0.50;0.40;;;19.60;99.90;;;;;;5053967;28;20931;-69
2021/09/11 00:23:39;;;;;;;0.40;0.10;;;19.70;99.90;;;;;;5054052;28;20208;-68
2021/09/11 00:26:05;;;;;;;0.40;0.20;;;19.60;99.90;;;;;;5054812;28;20437;-68
2021/09/11 00:28:30;;;;;;;0.40;0.20;;;19.60;99.90;;;;;;5054694;28;20188;-68
2021/09/11 00:30:56;;;;;;;0.40;0.10;;;19.60;99.90;;;;;;5054873;28;20192;-71
2021/09/11 00:33:21;;;;;;;0.60;0.47;;;19.70;99.90;;;;;;5054732;28;20196;-71
2021/09/11 00:35:47;;;;;;;0.40;0.20;;;19.70;99.90;;;;;;5054624;28;20185;-71
2021/09/11 00:38:13;;;;;;;0.40;0.10;;;19.70;99.90;;;;;;5054366;28;20191;-71
2021/09/11 00:40:38;;;;;;;0.40;0.20;;;19.70;99.90;;;;;;5054552;28;20255;-69
2021/09/11 00:43:04;;;;;;;0.40;0.10;;;19.70;99.90;;;;;;5054663;28;20209;-68
2021/09/11 00:45:30;;;;;;;0.40;0.20;;;19.70;99.90;;;;;;5054645;28;20181;-68
2021/09/11 00:47:55;;;;;;;0.40;0.10;;;19.70;99.90;;;;;;5054459;28;20192;-68
2021/09/11 00:50:21;;;;;;;0.40;0.10;;;19.70;99.90;;;;;;5054431;28;20181;-70
2021/09/11 00:52:49;;;;;;;0.40;0.20;;;19.60;99.90;;;;;;5054451;28;20527;-71
2021/09/11 00:55:15;;;;;;;0.40;0.20;;;19.60;99.90;;;;;;5054379;28;20943;-69
2021/09/11 00:57:44;;;;;;;0.40;0.17;;;19.50;99.90;;;;;;5054141;28;20447;-69
2021/09/11 01:00:11;;;;;;;0.60;0.60;;;19.40;99.90;;;;;;5054455;28;20510;-69
2021/09/11 01:02:37;;;;;;;0.40;0.17;;;19.40;99.90;;;;;;5054173;28;20474;-69
2021/09/11 01:05:08;;;;;;;0.40;0.20;;;19.30;99.90;;;;;;5054262;28;20435;-69
2021/09/11 01:07:44;;;;;;;0.40;0.20;;;19.30;99.90;;;;;;5054057;28;20185;-69
2021/09/11 01:10:10;;;;;;;0.40;0.17;;;19.30;99.90;;;;;;5054154;28;20415;-68
2021/09/11 01:12:37;;;;;;;0.40;0.20;;;19.30;99.90;;;;;;5054285;28;20431;-68
2021/09/11 01:15:06;;;;;;;0.40;0.20;;;19.30;99.90;;;;;;5054107;28;20504;-74
2021/09/11 01:17:32;;;;;;;0.40;0.20;;;19.40;99.90;;;;;;5052969;28;20474;-71
2021/09/11 01:19:57;;;;;;;0.40;0.20;;;19.30;99.90;;;;;;5052674;28;20980;-71
2021/09/11 01:22:23;;;;;;;0.40;0.20;;;19.30;99.90;;;;;;5052866;28;20294;-71
2021/09/11 01:25:00;;;;;;;0.40;0.20;;;19.40;99.90;;;;;;5052882;28;20371;-68
2021/09/11 01:27:28;;;;;;;0.40;0.20;;;19.20;99.90;;;;;;5053997;28;20180;-69
2021/09/11 01:29:58;;;;;;;0.40;0.20;;;19.20;99.90;;;;;;5053774;28;20415;-69
2021/09/11 01:32:25;;;;;;;0.40;0.13;;;19.20;99.90;;;;;;5053724;28;20423;-69
2021/09/11 01:34:51;;;;;;;0.40;0.20;;;19.10;99.90;;;;;;5053825;28;20427;-69
2021/09/11 01:37:18;;;;;;;0.40;0.20;;;19.20;99.90;;;;;;5053806;28;20438;-69
2021/09/11 01:39:47;;;;;;;0.50;0.20;;;19.20;99.90;;;;;;5053595;28;20453;-69
2021/09/11 01:42:15;;;;;;;0.40;0.20;;;19.30;99.90;;;;;;5053725;28;20438;-69
2021/09/11 01:44:46;;;;;;;0.40;0.20;;;19.20;99.90;;;;;;5053708;28;20925;-69
2021/09/11 01:47:12;;;;;;;0.40;0.20;;;19.10;99.90;;;;;;5053639;28;20438;-69
2021/09/11 01:49:37;;;;;;;0.40;0.20;;;19.10;99.90;;;;;;5053367;28;20775;-69
2021/09/11 01:52:03;;;;;;;0.50;0.33;;;18.90;99.90;;;;;;5053502;28;20438;-69
2021/09/11 01:54:29;;;;;;;0.40;0.17;;;18.80;99.90;;;;;;5053261;28;20176;-69
2021/09/11 01:56:54;;;;;;;1.23;1.13;;;18.70;99.90;;;;;;5053444;28;20169;-68
2021/09/11 01:59:20;;;;;;;0.40;0.20;;;18.70;99.90;;;;;;5053258;28;20188;-69
2021/09/11 02:01:45;;;;;;;0.40;0.10;;;18.80;99.90;;;;;;5053536;28;20200;-69
2021/09/11 02:04:11;;;;;;;4.47;1.27;;;18.90;99.90;;;;;;5053453;28;20227;-69
2021/09/11 02:06:36;;;;;;;0.40;0.20;;;18.90;99.90;;;;;;5053293;28;20227;-69
2021/09/11 02:09:02;;;;;;;2.00;0.97;;;18.90;99.90;;;;;;5053294;28;20177;-69
2021/09/11 02:11:27;;;;;;;0.40;0.20;;;19.10;99.90;;;;;;5053476;28;20185;-69
2021/09/11 02:13:53;;;;;;;1.90;1.80;;;19.20;99.90;;;;;;5053287;28;20269;-69
2021/09/11 02:16:18;;;;;;;0.40;0.20;;;19.20;99.90;;;;;;5053367;28;20318;-69
2021/09/11 02:18:44;;;;;;;0.40;0.20;;;19.20;99.90;;;;;;5053173;28;20185;-69
2021/09/11 02:21:09;;;;;;;0.40;0.20;;;19.20;99.90;;;;;;5053414;28;20510;-69
2021/09/11 02:23:35;;;;;;;0.60;0.60;;;19.30;99.90;;;;;;5053403;28;20208;-69
2021/09/11 02:26:00;;;;;;;0.40;0.10;;;19.30;99.90;;;;;;5053290;28;20578;-69
2021/09/11 02:28:26;;;;;;;0.40;0.20;;;19.20;99.90;;;;;;5051961;28;20266;-69
2021/09/11 02:30:51;;;;;;;0.40;0.20;;;19.30;99.90;;;;;;5053199;28;20216;-69
2021/09/11 02:33:17;;;;;;;0.40;0.10;;;19.20;99.90;;;;;;5053214;28;20565;-69
2021/09/11 02:35:42;;;;;;;0.40;0.30;;;19.10;99.90;;;;;;5053198;28;20188;-69
2021/09/11 02:38:08;;;;;;;0.40;0.20;;;19.10;99.90;;;;;;5053004;28;20243;-69
2021/09/11 02:40:33;;;;;;;0.40;0.10;;;19.00;99.90;;;;;;5053270;28;20188;-69
2021/09/11 02:42:59;;;;;;;0.40;0.20;;;19.10;99.90;;;;;;5053101;28;20200;-69
2021/09/11 02:45:25;;;;;;;0.40;0.20;;;19.20;99.90;;;;;;5052982;28;20192;-69
2021/09/11 02:47:50;;;;;;;0.40;0.10;;;19.30;99.90;;;;;;5055583;28;20181;-69
2021/09/11 02:50:16;;;;;;;1.97;1.87;;;19.40;99.90;;;;;;5056720;28;20180;-68
2021/09/11 02:52:41;;;;;;;0.77;0.73;;;19.30;99.90;;;;;;5056593;28;20180;-69
2021/09/11 02:55:07;;;;;;;1.57;1.47;;;19.10;99.90;;;;;;5056749;28;20191;-69
2021/09/11 02:57:33;;;;;;;0.40;0.20;;;19.10;99.90;;;;;;5056483;28;20177;-69
2021/09/11 02:59:58;;;;;;;0.50;0.20;;;19.20;99.90;;;;;;5055400;28;20446;-69
2021/09/11 03:02:24;;;;;;;0.50;0.40;;;19.10;99.90;;;;;;5056308;28;20230;-69
2021/09/11 03:04:49;;;;;;;1.27;0.67;;;19.10;99.90;;;;;;5055561;28;20191;-69
2021/09/11 03:07:16;;;;;;;1.70;1.40;;;19.30;99.90;;;;;;5056359;28;20215;-69
2021/09/11 03:09:41;;;;;;;0.73;0.70;;;19.30;99.90;;;;;;5056172;28;20510;-69
2021/09/11 03:12:07;;;;;;;0.87;0.87;;;19.10;99.90;;;;;;5056397;28;20510;-69
2021/09/11 03:14:33;;;;;;;3.50;1.37;;;19.10;99.90;;;;;;5056142;28;20642;-69
2021/09/11 03:16:59;;;;;;;1.53;0.97;;;19.00;99.90;;;;;;5056110;28;20422;-69
2021/09/11 03:19:24;;;;;;;0.40;0.20;;;18.90;99.90;;;;;;5056198;28;20725;-69
2021/09/11 03:21:50;;;;;;;0.40;0.20;;;18.70;99.90;;;;;;5056003;28;20177;-69
2021/09/11 03:24:16;;;;;;;1.60;1.57;;;18.80;99.90;;;;;;5056007;28;20649;-69
2021/09/11 03:26:42;;;;;;;0.50;0.10;;;18.90;99.90;;;;;;5055966;28;20173;-69
2021/09/11 03:29:07;;;;;;;0.40;0.20;;;18.80;99.90;;;;;;5055873;28;20181;-69
2021/09/11 03:31:33;;;;;;;0.60;0.60;;;18.80;99.90;;;;;;5056013;28;20250;-69
2021/09/11 03:33:58;;;;;;;0.40;0.20;;;19.00;99.90;;;;;;5056036;28;20181;-69
2021/09/11 03:36:24;;;;;;;0.53;0.27;;;19.10;99.90;;;;;;5055885;28;20206;-69
2021/09/11 03:38:49;;;;;;;1.90;1.70;;;19.10;99.90;;;;;;5055658;28;20183;-69
2021/09/11 03:41:16;;;;;;;0.40;0.10;;;18.90;99.90;;;;;;5055791;28;20181;-69
2021/09/11 03:43:42;;;;;;;0.40;0.20;;;19.00;99.90;;;;;;5055750;28;20601;-69
2021/09/11 03:46:08;;;;;;;0.40;0.10;;;19.20;99.90;;;;;;5055828;28;20427;-69
2021/09/11 03:48:33;;;;;;;0.40;0.20;;;19.40;99.90;;;;;;5055490;28;20457;-70
2021/09/11 03:50:59;;;;;;;0.40;0.20;;;19.40;99.90;;;;;;5055544;28;20177;-70
2021/09/11 03:53:24;;;;;;;0.40;0.10;;;19.50;99.90;;;;;;5055612;28;20181;-69
2021/09/11 03:55:50;;;;;;;0.50;0.43;;;19.60;99.90;;;;;;5055605;28;20546;-69
2021/09/11 03:58:15;;;;;;;0.40;0.20;;;19.60;99.90;;;;;;5053219;28;20200;-68
2021/09/11 04:00:41;;;;;;;3.03;1.70;;;19.70;99.90;;;;;;5054323;28;20260;-68
2021/09/11 04:03:07;;;;;;;0.40;0.20;;;19.60;99.90;;;;;;5054467;28;20209;-68
2021/09/11 04:05:32;;;;;;;2.53;2.37;;;19.30;99.90;;;;;;5055363;28;20181;-68
2021/09/11 04:07:58;;;;;;;1.07;1.07;;;19.20;99.90;;;;;;5055350;28;20193;-68
2021/09/11 04:10:23;;;;;;;1.33;1.27;;;19.20;99.90;;;;;;5055171;28;20606;-68
2021/09/11 04:12:49;;;;;;;0.50;0.50;;;19.30;99.90;;;;;;5055118;28;20192;-68
2021/09/11 04:15:14;;;;;;;0.40;0.20;;;19.40;99.90;;;;;;5055119;28;20177;-68
2021/09/11 04:17:40;;;;;;;0.40;0.10;;;19.40;99.90;;;;;;5054870;28;20238;-68
2021/09/11 04:20:06;;;;;;;0.40;0.30;;;19.50;99.90;;;;;;5054762;28;20256;-68
2021/09/11 04:22:32;;;;;;;9.87;9.50;;;19.40;99.90;;;;;;5053803;28;20291;-68
2021/09/11 04:24:58;;;;;;;1.13;1.13;;;19.40;99.90;;;;;;5054888;28;20514;-68
2021/09/11 04:27:23;;;;;;;0.40;0.20;;;19.20;99.90;;;;;;5054710;28;20260;-69
2021/09/11 04:29:49;;;;;;;0.40;0.20;;;19.20;99.90;;;;;;5054706;28;20593;-68
2021/09/11 04:32:15;;;;;;;0.40;0.10;;;19.20;99.90;;;;;;5054748;28;20173;-69
2021/09/11 04:34:40;;;;;;;0.40;0.10;;;19.10;99.90;;;;;;5054842;28;20173;-68
2021/09/11 04:37:06;;;;;;;0.40;0.30;;;19.00;99.90;;;;;;5054590;28;20181;-68
2021/09/11 04:39:32;;;;;;;0.40;0.20;;;19.20;99.90;;;;;;5054533;28;20454;-68
2021/09/11 04:41:57;;;;;;;1.07;1.07;;;19.30;99.90;;;;;;5054541;28;20264;-68
2021/09/11 04:44:23;;;;;;;0.40;0.10;;;19.50;99.90;;;;;;5054450;28;20197;-68
2021/09/11 04:46:49;;;;;;;0.40;0.20;;;19.70;99.90;;;;;;5054340;28;20496;-68
2021/09/11 04:49:14;;;;;;;0.40;0.20;;;19.70;99.90;;;;;;5053458;28;20177;-68
2021/09/11 04:51:40;;;;;;;0.40;0.20;;;19.70;99.90;;;;;;5054486;28;20185;-68
2021/09/11 04:54:05;;;;;;;0.40;0.20;;;19.70;99.90;;;;;;5054472;28;20219;-68
2021/09/11 04:56:31;;;;;;;0.40;0.20;;;19.70;99.90;;;;;;5054319;28;20238;-69
2021/09/11 04:58:56;;;;;;;0.40;0.40;;;19.80;99.90;;;;;;5054118;28;20215;-68
2021/09/11 05:01:22;;;;;;;0.40;0.20;;;19.60;99.90;;;;;;5054181;28;20177;-68
2021/09/11 05:03:48;;;;;;;0.40;0.20;;;19.80;99.90;;;;;;5054151;28;20208;-71
2021/09/11 05:06:13;;;;;;;0.40;0.20;;;19.60;99.90;;;;;;5054004;28;20173;-71
2021/09/11 05:08:39;;;;;;;3.67;2.57;;;19.60;99.90;;;;;;5053842;28;20517;-72
2021/09/11 05:11:04;;;;;;;1.43;1.40;;;19.50;99.90;;;;;;5052693;28;20172;-71
2021/09/11 05:13:30;;;;;;;0.40;0.30;;;19.60;99.90;;;;;;5053060;28;20195;-70
2021/09/11 05:15:55;;;;;;;0.40;0.20;;;19.60;99.90;;;;;;5052903;28;20185;-68
2021/09/11 05:18:21;;;;;;;0.40;0.10;;;19.60;99.90;;;;;;5053638;28;20216;-68
2021/09/11 05:20:46;;;;;;;0.40;0.20;;;19.70;99.90;;;;;;5053967;28;20172;-71
2021/09/11 05:23:12;;;;;;;1.53;1.43;;;19.70;99.90;;;;;;5053763;28;20216;-71
2021/09/11 05:25:38;;;;;;;0.40;0.20;;;19.70;99.90;;;;;;5053831;28;20181;-68
2021/09/11 05:28:03;;;;;;;2.57;2.13;;;19.40;99.90;;;;;;5053931;28;20256;-68
2021/09/11 05:30:29;;;;;;;0.40;0.20;;;19.50;99.90;;;;;;5052785;28;20185;-68
2021/09/11 05:32:54;;;;;;;0.40;0.30;;;19.70;99.90;;;;;;5053883;28;20430;-68
2021/09/11 05:35:20;;;;;;;0.40;0.20;;;19.70;99.90;;;;;;5053719;28;20180;-69
2021/09/11 05:37:46;;;;;;;0.40;0.20;;;19.60;99.90;;;;;;5053575;28;20340;-69
2021/09/11 05:40:11;;;;;;;0.97;0.87;;;19.70;99.90;;;;;;5053388;28;20209;-69
2021/09/11 05:42:37;;;;;;;0.40;0.20;;;19.70;99.90;;;;;;5053752;28;20219;-69
2021/09/11 05:45:05;;;;;;;0.40;0.13;;;19.70;99.90;;;;;;5053619;28;20172;-69
2021/09/11 05:47:31;;;;;;;0.40;0.10;;;19.80;99.90;;;;;;5053581;28;20273;-68
2021/09/11 05:49:57;;;;;;;0.40;0.17;;;20.00;99.90;;;;;;5053374;28;20423;-68
2021/09/11 05:52:23;;;;;;;0.40;0.17;;;19.90;99.90;;;;;;5053450;28;20183;-68
2021/09/11 05:54:49;;;;;;;0.40;0.20;;;20.00;99.90;;;;;;5053391;28;20518;-68
2021/09/11 05:57:15;;;;;;;0.40;0.10;;;20.10;99.90;;;;;;5053433;28;20502;-68
2021/09/11 05:59:40;;;;;;;0.50;0.20;;;20.20;99.90;;;;;;5053280;28;20189;-68
2021/09/11 06:02:06;;;;;;;1.83;0.93;;;19.90;99.90;;;;;;5052982;28;20184;-68
2021/09/11 06:04:32;;;;;;;0.77;0.77;;;19.90;99.90;;;;;;5053177;28;20216;-68
2021/09/11 06:06:57;;;;;;;0.40;0.10;;;20.00;99.90;;;;;;5053333;28;20267;-68
2021/09/11 06:09:23;;;;;;;0.40;0.20;;;20.30;99.90;;;;;;5053228;28;20173;-68
2021/09/11 06:11:49;;;;;;;0.40;0.20;;;20.40;99.90;;;;;;5053493;28;20184;-68
2021/09/11 06:14:14;;;;;;;1.63;1.53;;;20.40;99.90;;;;;;5053526;28;20176;-68
2021/09/11 06:16:40;;;;;;;0.40;0.17;;;20.40;99.90;;;;;;5053101;28;20185;-68
2021/09/11 06:19:09;;;;;;;0.40;0.20;;;20.20;99.90;;;;;;5053067;28;20184;-68
2021/09/11 06:21:34;;;;;;;0.40;0.20;;;20.20;99.90;;;;;;5053538;28;20181;-69
2021/09/11 06:24:00;;;;;;;0.40;0.20;;;20.20;99.90;;;;;;5057039;28;20765;-69
2021/09/11 06:26:26;;;;;;;0.53;0.53;;;20.40;99.90;;;;;;5056656;28;20279;-69
2021/09/11 06:28:51;;;;;;;0.40;0.20;;;20.50;99.90;;;;;;5039377;28;20184;-72
2021/09/11 06:31:17;;;;;;;0.40;0.20;;;20.60;99.90;;;;;;5057051;28;20192;-72
2021/09/11 06:33:42;;;;;;;0.40;0.20;;;21.00;99.90;;;;;;5056847;28;20181;-69
2021/09/11 06:36:11;;;;;;;0.40;0.20;;;21.10;99.90;;;;;;5057057;28;20181;-69
2021/09/11 06:38:37;;;;;;;0.40;0.20;;;21.50;99.90;;;;;;5056256;28;20220;-69
2021/09/11 06:41:02;;;;;;;0.40;0.10;;;21.70;99.90;;;;;;5056630;28;20428;-69
2021/09/11 06:43:28;;;;;;;0.40;0.23;;;21.80;99.90;;;;;;5056596;28;20586;-69
2021/09/11 06:45:54;;;;;;;2.07;1.90;;;21.70;99.90;;;;;;5055460;28;20427;-71
2021/09/11 06:48:19;;;;;;;0.40;0.10;;;21.90;99.90;;;;;;5055640;28;20519;-72
2021/09/11 06:50:45;;;;;;;0.40;0.10;;;21.70;99.90;;;;;;5056329;28;20169;-71
2021/09/11 06:53:10;;;;;;;0.40;0.20;;;21.50;99.90;;;;;;5055261;28;20192;-72
2021/09/11 06:55:36;;;;;;;0.40;0.20;;;21.60;99.90;;;;;;5056356;28;20208;-71
2021/09/11 06:58:01;;;;;;;3.80;1.50;;;21.60;99.90;;;;;;5055804;28;20211;-72
2021/09/11 07:00:27;;;;;;;1.53;1.43;;;21.80;99.90;;;;;;5055565;28;20189;-71
2021/09/11 07:02:54;;;;;;;1.17;1.10;;;21.80;99.90;;;;;;5055843;28;20227;-72
2021/09/11 07:05:20;;;;;;;2.20;2.10;;;21.60;99.90;;;;;;5055918;28;20188;-71
2021/09/11 07:07:46;;;;;;;0.70;0.70;;;21.60;99.90;;;;;;5055960;28;20431;-72
2021/09/11 07:10:11;;;;;;;2.10;2.00;;;21.80;99.90;;;;;;5055562;28;20177;-71
2021/09/11 07:12:37;;;;;;;0.57;0.40;;;21.50;99.90;;;;;;5056114;28;20357;-71
2021/09/11 07:15:05;;;;;;;0.40;0.20;;;21.60;99.90;;;;;;5055974;28;20181;-72
2021/09/11 07:17:31;;;;;;;2.93;0.87;;;21.60;99.90;;;;;;5054928;28;20177;-71
2021/09/11 07:19:57;;;;;;;0.40;0.17;;;21.60;99.90;;;;;;5055766;28;20491;-71
2021/09/11 07:22:27;;;;;;;0.40;0.20;;;22.10;99.90;;;;;;5056076;28;20177;-69
2021/09/11 07:24:53;;;;;;;0.60;0.50;;;22.40;99.90;;;;;;5056259;28;20423;-69
2021/09/11 07:27:18;;;;;;;0.40;0.20;;;22.30;99.90;;;;;;5055265;28;20481;-69
2021/09/11 07:29:44;;;;;;;0.50;0.37;;;22.70;99.90;;;;;;5056617;28;20196;-70
2021/09/11 07:32:10;;;;;;;0.40;0.20;;;22.80;99.90;;;;;;5056240;28;20478;-70
2021/09/11 07:34:35;;;;;;;0.40;0.20;;;23.00;99.90;;;;;;5055271;28;20430;-70
2021/09/11 07:37:01;;;;;;;0.40;0.20;;;23.10;93.70;;;;;;5055015;28;20594;-72
2021/09/11 07:39:26;;;;;;;1.23;1.17;;;23.10;71.70;;;;;;5055181;28;20700;-70
2021/09/11 07:41:52;;;;;;;0.40;0.20;;;23.20;19.40;;;;;;5055103;28;20494;-70
2021/09/11 07:44:21;;;;;;;0.63;0.43;;;23.20;23.90;;;;;;5055306;28;20196;-73
2021/09/11 07:46:47;;;;;;;0.70;0.50;;;23.10;58.30;;;;;;5054902;28;20272;-70
2021/09/11 07:49:12;;;;;;;0.40;0.20;;;23.00;47.40;;;;;;5054784;28;20450;-71
2021/09/11 07:51:38;;;;;;;0.50;0.23;;;23.00;97.90;;;;;;5054113;28;20195;-70
2021/09/11 07:54:03;;;;;;;1.50;0.83;;;22.90;99.90;;;;;;5055256;28;20243;-72
2021/09/11 07:56:29;;;;;;;0.40;0.20;;;22.70;99.90;;;;;;5055137;28;20177;-70
2021/09/11 07:58:54;;;;;;;0.40;0.30;;;22.10;99.90;;;;;;5054619;28;20207;-70
2021/09/11 08:01:20;;;;;;;0.40;0.20;;;22.20;99.90;;;;;;5054295;28;20271;-69
2021/09/11 08:03:46;;;;;;;0.40;0.10;;;22.10;99.90;;;;;;5053771;28;20254;-70
2021/09/11 08:06:11;;;;;;;0.40;0.20;;;22.20;99.90;;;;;;5055079;28;20173;-70
2021/09/11 08:08:37;;;;;;;0.40;0.20;;;22.30;99.90;;;;;;5053514;28;20189;-70
2021/09/11 08:11:06;;;;;;;0.40;0.20;;;22.20;99.90;;;;;;5054705;28;20260;-70
2021/09/11 08:13:32;;;;;;;0.40;0.20;;;22.10;99.90;;;;;;5054206;28;20438;-72
2021/09/11 08:15:58;;;;;;;1.17;0.60;;;22.40;99.90;;;;;;5054326;28;20423;-72
2021/09/11 08:18:24;;;;;;;2.00;0.87;;;22.60;99.90;;;;;;5054408;28;20915;-72
2021/09/11 08:20:51;;;;;;;2.67;2.03;;;22.90;99.90;;;;;;5053814;28;20595;-72
2021/09/11 08:23:18;;;;;;;0.53;0.47;;;22.70;99.90;;;;;;5053823;28;20754;-72
2021/09/11 08:25:45;;;;;;;0.40;0.20;;;22.70;99.90;;;;;;5054311;28;20573;-70
2021/09/11 08:28:12;;;;;;;1.67;1.60;;;23.00;99.90;;;;;;5052577;28;20507;-70
2021/09/11 08:30:37;;;;;;;0.40;0.20;;;22.70;99.90;;;;;;5053886;28;20430;-70
2021/09/11 08:33:03;;;;;;;0.40;0.20;;;22.80;99.90;;;;;;5054100;28;20423;-69
2021/09/11 08:35:29;;;;;;;0.40;0.20;;;23.00;94.20;;;;;;5054617;28;20508;-70
2021/09/11 08:37:54;;;;;;;0.40;0.20;;;23.00;38.90;;;;;;5053611;28;20465;-69
2021/09/11 08:40:21;;;;;;;0.60;0.40;;;23.20;1.00;;;;;;5054055;28;20180;-72
2021/09/11 08:42:47;;;;;;;0.40;0.20;;;23.00;1.00;;;;;;5053674;28;20200;-72
2021/09/11 08:45:14;;;;;;;0.40;0.20;;;22.70;48.40;;;;;;5052980;28;20485;-70
2021/09/11 08:47:47;;;;;;;0.40;0.13;;;22.60;99.90;;;;;;5053515;28;20184;-71
2021/09/11 08:50:14;;;;;;;1.47;1.20;;;22.60;99.90;;;;;;5053437;28;20424;-72
2021/09/11 08:52:41;;;;;;;0.67;0.67;;;22.40;99.90;;;;;;5053828;28;20518;-70
2021/09/11 08:55:08;;;;;;;0.40;0.20;;;21.90;99.90;;;;;;5052728;28;20916;-71
2021/09/11 08:57:34;;;;;;;0.40;0.20;;;21.70;99.90;;;;;;5052339;28;20435;-71
2021/09/11 08:59:59;;;;;;;0.40;0.20;;;21.80;99.90;;;;;;5053051;28;20434;-69
2021/09/11 09:02:25;;;;;;;1.07;1.07;;;21.60;99.90;;;;;;5052799;28;20225;-69
2021/09/11 09:04:58;;;;;;;0.40;0.20;;;21.50;99.90;;;;;;5053326;28;20342;-70
2021/09/11 09:07:30;;;;;;;0.50;0.40;;;21.80;99.90;;;;;;5053654;28;20510;-72
2021/09/11 09:10:10;;;;;;;0.40;0.20;;;21.80;99.90;;;;;;5053390;28;20460;-71
2021/09/11 09:12:38;;;;;;;0.40;0.10;;;21.80;99.90;;;;;;5053174;28;20750;-71
2021/09/11 09:15:08;;;;;;;0.40;0.20;;;22.00;99.90;;;;;;5053189;28;20506;-72
2021/09/11 09:22:10;;;;;;;;;;;;;;;;;;;;;
2021/09/11 09:25:25;;;;;;;0.40;0.20;;;22.60;99.90;;;;;;5053689;28;20562;-71
2021/09/11 09:27:52;;;;;;;0.40;0.20;;;22.60;99.90;;;;;;5052041;28;20454;-69
2021/09/11 09:30:20;;;;;;;3.37;3.13;;;22.20;99.90;;;;;;5052920;28;20446;-69
2021/09/11 09:33:04;;;;;;;3.53;2.53;;;22.40;99.90;;;;;;5052143;28;20423;-69
2021/09/11 09:35:39;;;;;;;0.40;0.20;;;22.60;99.90;;;;;;5052439;28;20423;-69
2021/09/11 09:38:08;;;;;;;0.40;0.20;;;22.70;99.90;;;;;;5053509;28;20483;-72
2021/09/11 09:40:49;;;;;;;0.40;0.20;;;22.90;99.90;;;;;;5053330;28;20910;-71
2021/09/11 09:43:54;;;;;;;1.03;0.93;;;23.10;84.80;;;;;;5052173;28;20470;-71
2021/09/11 09:46:20;;;;;;;0.40;0.20;;;23.00;1.00;;;;;;5032230;28;20471;-69
2021/09/11 09:48:48;;;;;;;1.90;0.63;;;23.00;1.00;;;;;;5014286;28;20460;-69
2021/09/11 09:51:15;;;;;;;0.50;0.27;;;23.20;1.00;;;;;;5040911;28;20298;-69
2021/09/11 09:53:43;;;;;;;1.87;1.70;;;23.60;1.00;;;;;;5052544;28;20427;-69
2021/09/11 09:56:19;;;;;;;0.60;0.40;;;23.10;1.00;;;;;;5053271;28;20434;-69
2021/09/11 09:58:51;;;;;;;1.07;0.97;;;23.20;1.00;;;;;;5058149;28;20450;-70
2021/09/11 10:01:16;;;;;;;3.40;3.13;;;23.50;1.00;;;;;;5057699;28;20458;-69
2021/09/11 10:03:42;;;;;;;0.80;0.70;;;23.30;1.00;;;;;;5056295;28;20500;-69
2021/09/11 10:06:17;;;;;;;0.50;0.47;;;23.90;1.00;;;;;;5056695;28;20169;-69
2021/09/11 10:08:50;;;;;;;0.40;0.20;;;24.40;99.90;;;;;;5056752;28;20252;-69
2021/09/11 10:11:18;;;;;;;3.13;2.50;;;24.20;99.90;;;;;;5056736;28;20914;-72
2021/09/11 10:13:58;;;;;;;1.87;1.77;;;24.00;99.90;;;;;;5056623;28;20840;-69
2021/09/11 10:16:35;;;;;;;0.40;0.20;;;23.90;99.90;;;;;;5057116;28;20431;-72
2021/09/11 10:19:17;;;;;;;3.13;3.03;;;24.40;99.90;;;;;;5057504;28;20422;-72
2021/09/11 10:22:04;;;;;;;1.90;1.13;;;24.90;1.00;;;;;;5057228;28;20484;-69
2021/09/11 10:24:32;;;;;;;0.50;0.20;;;24.80;99.90;;;;;;5056782;28;20546;-69
2021/09/11 10:27:11;;;;;;;0.50;0.30;;;24.60;99.90;;;;;;5056844;28;20427;-72
2021/09/11 10:29:44;;;;;;;1.13;0.40;;;24.90;99.90;;;;;;5056753;28;20427;-71
2021/09/11 10:32:15;;;;;;;4.03;2.00;;;24.50;99.90;;;;;;5056910;28;20968;-72
2021/09/11 10:35:10;;;;;;;0.50;0.47;;;23.80;1.00;;;;;;5055983;28;20427;-69
2021/09/11 10:37:40;;;;;;;0.93;0.93;;;23.70;99.90;;;;;;5056574;28;20423;-71
2021/09/11 10:40:35;;;;;;;2.43;2.33;;;23.90;99.90;;;;;;5055991;28;20484;-69
2021/09/11 10:43:01;;;;;;;2.63;1.17;;;23.70;99.90;;;;;;5056380;28;20797;-69
2021/09/11 10:45:52;;;;;;;1.77;1.67;;;23.80;99.90;;;;;;5056559;28;20450;-69
2021/09/11 10:48:33;;;;;;;2.77;2.67;;;24.60;1.00;;;;;;5055865;28;20421;-72
2021/09/11 10:51:32;;;;;;;0.40;0.10;;;24.90;99.90;;;;;;5055825;28;20446;-70
2021/09/11 10:54:20;;;;;;;1.07;0.87;;;25.50;1.00;;;;;;5056017;28;20427;-69
2021/09/11 10:56:50;;;;;;;0.40;0.20;;;24.90;99.90;;;;;;5055811;28;20427;-69
2021/09/11 10:59:16;;;;;;;0.70;0.30;;;24.60;99.90;;;;;;5056062;28;20462;-72
2021/09/11 11:02:03;;;;;;;0.40;0.20;;;24.10;99.90;;;;;;5056380;28;20414;-70
2021/09/11 11:04:34;;;;;;;1.50;1.40;;;24.00;1.00;;;;;;5056148;28;20260;-70
2021/09/11 11:07:03;;;;;;;0.40;0.17;;;23.80;87.30;;;;;;5055813;28;20423;-72
2021/09/11 11:09:43;;;;;;;0.50;0.30;;;23.70;99.90;;;;;;5055632;28;20565;-71
2021/09/11 11:12:11;;;;;;;0.50;0.20;;;23.60;99.90;;;;;;5056064;28;20440;-73
2021/09/11 11:14:47;;;;;;;1.13;1.03;;;23.30;99.90;;;;;;5055912;28;20431;-70
2021/09/11 11:17:18;;;;;;;0.50;0.30;;;23.10;99.90;;;;;;5055744;28;20557;-73
2021/09/11 11:19:51;;;;;;;1.43;1.33;;;23.60;99.90;;;;;;5055030;28;20423;-72
2021/09/11 11:22:24;;;;;;;0.40;0.20;;;23.80;98.40;;;;;;5055454;28;20505;-73
2021/09/11 11:24:50;;;;;;;0.40;0.20;;;23.90;1.00;;;;;;5055226;28;20872;-73
2021/09/11 11:27:18;;;;;;;1.50;1.40;;;24.20;1.00;;;;;;5055408;28;20423;-73
2021/09/11 11:29:45;;;;;;;0.67;0.67;;;24.30;99.90;;;;;;5055156;28;20485;-73
2021/09/11 11:32:11;;;;;;;0.40;0.10;;;24.30;99.90;;;;;;5055349;28;20434;-73
2021/09/11 11:34:38;;;;;;;1.57;1.47;;;24.60;99.90;;;;;;5056081;28;20431;-74
2021/09/11 11:37:06;;;;;;;0.60;0.40;;;24.90;6.80;;;;;;5055601;28;20496;-73
2021/09/11 11:39:34;;;;;;;0.40;0.17;;;25.00;99.90;;;;;;5055258;28;20550;-71
2021/09/11 11:42:08;;;;;;;2.07;1.27;;;24.50;1.00;;;;;;5055566;28;20435;-72
2021/09/11 11:44:39;;;;;;;0.40;0.20;;;24.50;1.00;;;;;;5054444;28;20557;-72
2021/09/11 11:47:08;;;;;;;0.40;0.20;;;23.90;1.00;;;;;;5056108;28;20884;-71
2021/09/11 11:49:39;;;;;;;0.40;0.20;;;23.40;99.90;;;;;;5055410;28;20427;-72
2021/09/11 11:52:11;;;;;;;0.40;0.20;;;23.50;1.00;;;;;;5054323;28;20431;-72
2021/09/11 11:54:38;;;;;;;1.37;0.70;;;23.70;99.90;;;;;;5055521;28;20441;-72
2021/09/11 11:57:13;;;;;;;1.13;0.83;;;23.50;99.90;;;;;;5055086;28;20485;-72
2021/09/11 11:59:40;;;;;;;2.10;1.03;;;23.20;1.00;;;;;;5054844;28;20462;-71
2021/09/11 12:02:32;;;;;;;0.50;0.37;;;22.80;99.90;;;;;;5054763;28;20431;-71
2021/09/11 12:05:18;;;;;;;0.40;0.20;;;22.90;1.00;;;;;;5054809;28;20497;-72
2021/09/11 12:08:05;;;;;;;0.40;0.20;;;23.00;1.00;;;;;;5054747;28;20904;-72
2021/09/11 12:10:33;;;;;;;0.40;0.20;;;23.40;1.00;;;;;;5054885;28;20534;-72
2021/09/11 12:13:10;;;;;;;0.50;0.30;;;23.70;99.90;;;;;;5054566;28;20485;-72
2021/09/11 12:15:39;;;;;;;0.40;0.20;;;24.00;1.00;;;;;;5054714;28;20911;-73
2021/09/11 12:18:14;;;;;;;0.40;0.20;;;24.20;1.00;;;;;;5053869;28;20493;-73
2021/09/11 12:20:43;;;;;;;0.40;0.10;;;24.70;1.00;;;;;;5053424;28;20434;-72
2021/09/11 12:23:18;;;;;;;0.67;0.50;;;24.40;3.00;;;;;;5054540;28;20463;-73
2021/09/11 12:25:50;;;;;;;0.40;0.10;;;24.20;99.90;;;;;;5054478;28;20463;-72
2021/09/11 12:28:37;;;;;;;0.47;0.27;;;24.50;1.00;;;;;;5053891;28;20799;-72
2021/09/11 12:31:07;;;;;;;1.37;0.93;;;24.80;99.90;;;;;;5054371;28;20888;-72
2021/09/11 12:34:14;;;;;;;1.97;1.87;;;24.60;1.00;;;;;;5054411;28;20443;-72
2021/09/11 12:36:48;;;;;;;0.40;0.20;;;24.30;1.00;;;;;;5049493;28;20472;-72
2021/09/11 12:39:16;;;;;;;1.23;0.70;;;24.30;1.00;;;;;;5054191;28;20493;-72
2021/09/11 12:41:50;;;;;;;0.80;0.80;;;24.20;99.90;;;;;;5054236;28;20434;-72
2021/09/11 12:44:24;;;;;;;0.40;0.10;;;24.50;99.90;;;;;;5054725;28;20459;-72
2021/09/11 12:46:55;;;;;;;0.83;0.30;;;24.40;1.00;;;;;;5054015;28;20423;-72
2021/09/11 12:49:23;;;;;;;0.40;0.20;;;24.30;99.90;;;;;;5053924;28;20476;-72
2021/09/11 12:51:50;;;;;;;2.43;0.73;;;24.50;1.00;;;;;;5054303;28;20419;-72
2021/09/11 12:54:17;;;;;;;1.10;1.00;;;24.80;4.60;;;;;;5054618;28;20484;-73
2021/09/11 12:56:45;;;;;;;0.40;0.20;;;24.80;99.90;;;;;;5053019;28;20935;-73
2021/09/11 12:59:14;;;;;;;0.40;0.10;;;24.70;99.90;;;;;;5052796;28;20457;-74
2021/09/11 13:01:41;;;;;;;0.67;0.67;;;24.70;1.00;;;;;;5053538;28;20520;-72